Time;durP1;ratioP1;P1;durP2;ratioP2;P2;SDS_P1;SDS_P2;PMS_P1;PMS_P2;Temp;Humidity;BMP_temperature;BMP_pressure;BME280_temperature;BME280_humidity;BME280_pressure;Samples;Min_cycle;Max_cycle;Signal;HPM_P1;HPM_P2
2021/10/21 00:01:09;;;;;;;11.43;5.13;;;14.20;99.90;;;;;;5052796;28;20037;-77
2021/10/21 00:03:35;;;;;;;15.85;5.22;;;14.20;99.90;;;;;;5051514;28;20025;-76
2021/10/21 00:06:03;;;;;;;13.20;5.60;;;14.30;99.90;;;;;;5053375;28;20064;-76
2021/10/21 00:08:28;;;;;;;13.13;5.75;;;14.30;99.90;;;;;;5055367;28;20479;-78
2021/10/21 00:10:55;;;;;;;14.95;8.18;;;14.30;99.90;;;;;;5056889;28;20100;-78
2021/10/21 00:13:20;;;;;;;16.10;7.82;;;14.20;99.90;;;;;;5038640;28;20053;-79
2021/10/21 00:15:46;;;;;;;16.25;7.47;;;14.30;99.90;;;;;;5055578;28;20400;-77
2021/10/21 00:18:12;;;;;;;17.65;7.85;;;14.30;99.90;;;;;;5055340;28;20729;-78
2021/10/21 00:20:39;;;;;;;17.83;7.65;;;14.30;99.90;;;;;;5054964;28;20108;-77
2021/10/21 00:23:05;;;;;;;19.65;8.20;;;14.30;99.90;;;;;;5055134;28;20107;-77
2021/10/21 00:25:31;;;;;;;15.73;8.13;;;14.30;99.90;;;;;;5054984;28;20167;-78
2021/10/21 00:27:56;;;;;;;12.07;6.35;;;14.30;99.90;;;;;;5056191;28;20021;-78
2021/10/21 00:30:22;;;;;;;11.65;5.30;;;14.30;99.90;;;;;;5055038;28;20045;-78
2021/10/21 00:32:48;;;;;;;10.98;5.35;;;14.20;99.90;;;;;;5056345;28;20110;-79
2021/10/21 00:35:13;;;;;;;12.60;5.25;;;14.20;99.90;;;;;;5054981;28;20037;-77
2021/10/21 00:37:40;;;;;;;11.77;6.22;;;14.10;99.90;;;;;;5056006;28;20036;-80
2021/10/21 00:40:06;;;;;;;12.43;5.88;;;14.10;99.90;;;;;;5056050;28;20101;-77
2021/10/21 00:42:32;;;;;;;14.52;6.32;;;14.10;99.90;;;;;;5056091;28;20025;-77
2021/10/21 00:44:57;;;;;;;14.60;6.32;;;14.10;99.90;;;;;;5038008;28;20025;-75
2021/10/21 00:47:23;;;;;;;16.83;6.00;;;14.10;99.90;;;;;;5054828;28;20127;-76
2021/10/21 00:49:49;;;;;;;14.55;6.05;;;14.10;99.90;;;;;;5038116;28;20029;-78
2021/10/21 00:52:15;;;;;;;15.15;6.25;;;14.10;99.90;;;;;;5055846;28;20396;-77
2021/10/21 00:54:42;;;;;;;15.07;6.88;;;14.10;99.90;;;;;;5054885;28;20037;-78
2021/10/21 00:57:11;;;;;;;14.48;7.07;;;14.10;99.90;;;;;;5055677;28;20041;-79
2021/10/21 00:59:37;;;;;;;16.15;7.38;;;14.10;99.90;;;;;;5055591;28;20079;-79
2021/10/21 01:02:03;;;;;;;15.43;7.35;;;14.10;99.90;;;;;;5055718;28;20045;-78
2021/10/21 01:04:29;;;;;;;12.95;5.75;;;14.00;99.90;;;;;;5054335;28;20448;-78
2021/10/21 01:06:55;;;;;;;13.15;6.45;;;14.00;99.90;;;;;;5054519;28;20519;-78
2021/10/21 01:09:23;;;;;;;11.55;6.05;;;14.00;99.90;;;;;;5055602;28;20021;-79
2021/10/21 01:11:50;;;;;;;14.40;6.75;;;13.90;99.90;;;;;;5037643;28;20571;-78
2021/10/21 01:14:16;;;;;;;10.18;4.28;;;13.90;99.90;;;;;;5055241;28;20075;-78
2021/10/21 01:16:42;;;;;;;11.57;4.30;;;13.80;99.90;;;;;;5055195;28;20193;-77
2021/10/21 01:19:23;;;;;;;10.80;3.63;;;13.70;99.90;;;;;;5055382;28;20090;-79
2021/10/21 01:21:52;;;;;;;8.85;3.33;;;13.60;99.90;;;;;;5055441;28;20033;-77
2021/10/21 01:24:18;;;;;;;10.20;3.28;;;13.60;99.90;;;;;;5055354;28;20033;-78
2021/10/21 01:26:49;;;;;;;10.10;2.78;;;13.50;99.90;;;;;;5037352;28;20545;-78
2021/10/21 01:29:16;;;;;;;6.82;2.15;;;13.50;99.90;;;;;;5054064;28;20385;-78
2021/10/21 01:31:42;;;;;;;5.85;2.30;;;13.40;99.90;;;;;;5053798;28;20036;-78
2021/10/21 01:34:09;;;;;;;9.80;2.92;;;13.40;99.90;;;;;;5055209;28;20029;-77
2021/10/21 01:36:36;;;;;;;6.13;1.92;;;13.40;99.90;;;;;;5055028;28;20112;-78
2021/10/21 01:39:10;;;;;;;6.93;2.80;;;13.30;99.90;;;;;;5053660;28;20463;-79
2021/10/21 01:41:35;;;;;;;;;;;13.30;99.90;;;;;;5055376;28;20396;-75
2021/10/21 01:44:01;;;;;;;8.98;1.50;;;13.30;99.90;;;;;;5054900;28;19911;-77
2021/10/21 01:46:27;;;;;;;4.72;1.10;;;13.30;99.90;;;;;;5037145;28;20029;-77
2021/10/21 01:48:53;;;;;;;8.15;1.35;;;13.30;99.90;;;;;;5054802;28;20058;-78
2021/10/21 01:51:19;;;;;;;4.75;1.08;;;13.20;99.90;;;;;;5054719;28;20033;-75
2021/10/21 01:53:44;;;;;;;3.53;1.10;;;13.10;99.80;;;;;;5053654;28;20035;-75
2021/10/21 01:56:10;;;;;;;2.47;0.52;;;13.00;98.90;;;;;;5054685;28;20481;-80
2021/10/21 01:58:36;;;;;;;4.20;0.52;;;12.90;98.60;;;;;;5054381;28;20458;-78
2021/10/21 02:01:02;;;;;;;4.53;0.93;;;12.80;98.60;;;;;;5053307;28;20027;-76
2021/10/21 02:03:28;;;;;;;5.15;0.70;;;12.70;98.20;;;;;;5054423;28;20032;-78
2021/10/21 02:05:54;;;;;;;4.03;0.55;;;12.60;98.10;;;;;;5053195;28;20017;-78
2021/10/21 02:08:19;;;;;;;3.55;0.50;;;12.50;97.80;;;;;;5053243;28;20029;-79
2021/10/21 02:10:45;;;;;;;4.28;0.60;;;12.40;97.90;;;;;;5053337;28;20035;-78
2021/10/21 02:13:12;;;;;;;5.55;0.80;;;12.30;98.30;;;;;;5052921;28;20044;-79
2021/10/21 02:15:37;;;;;;;2.08;0.52;;;12.30;98.60;;;;;;5036586;28;20025;-78
2021/10/21 02:18:03;;;;;;;4.90;0.70;;;12.20;98.70;;;;;;5053219;28;20032;-78
2021/10/21 02:20:29;;;;;;;6.38;0.68;;;12.20;99.00;;;;;;5019956;28;20385;-77
2021/10/21 02:22:54;;;;;;;3.55;0.80;;;12.10;99.00;;;;;;5054093;28;20436;-77
2021/10/21 02:25:21;;;;;;;5.00;0.93;;;12.00;99.40;;;;;;5036385;28;20021;-78
2021/10/21 02:27:47;;;;;;;6.18;1.05;;;12.00;99.30;;;;;;5052451;28;20021;-77
2021/10/21 02:30:14;;;;;;;7.35;0.88;;;11.90;99.30;;;;;;5053971;28;20086;-77
2021/10/21 02:32:41;;;;;;;7.15;0.80;;;11.80;99.40;;;;;;5052804;28;20025;-77
2021/10/21 02:35:08;;;;;;;4.72;0.70;;;11.90;99.50;;;;;;5054048;28;20032;-79
2021/10/21 02:37:34;;;;;;;8.68;1.20;;;11.90;99.50;;;;;;5052626;28;20103;-77
2021/10/21 02:40:00;;;;;;;7.60;0.63;;;11.90;99.30;;;;;;5052643;28;20025;-78
2021/10/21 02:42:26;;;;;;;8.15;0.77;;;11.90;99.30;;;;;;5065900;28;20116;-77
2021/10/21 02:44:52;;;;;;;5.03;0.50;;;11.90;99.00;;;;;;5073389;28;20112;-77
2021/10/21 02:47:18;;;;;;;3.50;0.47;;;11.90;98.70;;;;;;5069135;28;20021;-79
2021/10/21 02:49:44;;;;;;;5.28;0.70;;;11.90;98.40;;;;;;5072583;28;20506;-77
2021/10/21 02:52:10;;;;;;;8.13;0.70;;;12.00;98.20;;;;;;5069560;28;20046;-78
2021/10/21 02:54:35;;;;;;;5.32;0.50;;;12.00;97.90;;;;;;5056134;28;20484;-78
2021/10/21 02:57:01;;;;;;;5.90;0.50;;;12.00;97.80;;;;;;5073749;28;20086;-77
2021/10/21 02:59:27;;;;;;;6.47;1.38;;;12.10;97.60;;;;;;5069454;28;20033;-76
2021/10/21 03:01:53;;;;;;;7.57;0.45;;;12.10;97.20;;;;;;5055457;28;20024;-80
2021/10/21 03:04:18;;;;;;;4.32;0.50;;;12.10;97.30;;;;;;5038877;28;20070;-79
2021/10/21 03:06:44;;;;;;;1.73;0.40;;;12.20;97.30;;;;;;5072390;28;20082;-77
2021/10/21 03:09:09;;;;;;;6.78;0.63;;;12.20;97.00;;;;;;5072460;28;20542;-77
2021/10/21 03:11:35;;;;;;;4.82;0.43;;;12.20;96.70;;;;;;5072518;28;20032;-77
2021/10/21 03:14:02;;;;;;;5.82;0.40;;;12.30;96.60;;;;;;5072670;28;20499;-76
2021/10/21 03:16:30;;;;;;;2.17;0.40;;;12.30;96.20;;;;;;5073578;28;20066;-77
2021/10/21 03:18:56;;;;;;;5.88;0.40;;;12.30;96.70;;;;;;5073506;28;20083;-79
2021/10/21 03:21:22;;;;;;;3.67;0.50;;;12.30;97.00;;;;;;5072264;28;20369;-77
2021/10/21 03:23:47;;;;;;;5.13;0.65;;;12.30;97.30;;;;;;5073573;28;20038;-77
2021/10/21 03:26:13;;;;;;;7.28;0.50;;;12.20;97.50;;;;;;5055736;28;20016;-78
2021/10/21 03:28:39;;;;;;;4.68;0.40;;;12.20;97.70;;;;;;5073310;28;20468;-81
2021/10/21 03:31:05;;;;;;;6.55;0.90;;;12.20;98.00;;;;;;5072044;28;20116;-76
2021/10/21 03:33:31;;;;;;;5.75;0.50;;;12.20;98.10;;;;;;5055525;28;20369;-79
2021/10/21 03:35:57;;;;;;;2.63;0.30;;;12.20;98.10;;;;;;5073364;28;20107;-77
2021/10/21 03:38:23;;;;;;;3.28;0.40;;;12.10;98.20;;;;;;5072498;28;20028;-77
2021/10/21 03:40:48;;;;;;;3.25;0.63;;;12.10;98.20;;;;;;5058119;28;20035;-78
2021/10/21 03:43:14;;;;;;;6.97;1.20;;;12.10;98.30;;;;;;5076145;28;20021;-78
2021/10/21 03:45:40;;;;;;;6.47;0.88;;;12.10;98.40;;;;;;5077624;28;20081;-77
2021/10/21 03:48:05;;;;;;;5.40;0.80;;;12.10;98.30;;;;;;5059345;28;20021;-80
2021/10/21 03:50:31;;;;;;;5.28;0.68;;;12.10;98.50;;;;;;5077405;28;20103;-78
2021/10/21 03:52:57;;;;;;;6.47;0.98;;;12.00;98.30;;;;;;5076275;28;20040;-78
2021/10/21 03:55:22;;;;;;;5.70;0.45;;;12.10;98.30;;;;;;5076049;28;20098;-78
2021/10/21 03:57:49;;;;;;;9.18;0.60;;;12.10;98.40;;;;;;5077154;28;20020;-77
2021/10/21 04:00:15;;;;;;;5.63;0.70;;;12.00;98.20;;;;;;5059060;28;20029;-79
2021/10/21 04:02:41;;;;;;;8.05;0.80;;;12.10;98.10;;;;;;5076157;28;20090;-78
2021/10/21 04:05:07;;;;;;;3.70;0.43;;;12.10;98.20;;;;;;5076153;28;20488;-79
2021/10/21 04:07:34;;;;;;;9.23;0.85;;;12.10;98.20;;;;;;5075868;28;20032;-76
2021/10/21 04:10:00;;;;;;;7.40;0.60;;;12.10;98.20;;;;;;5059034;28;20017;-78
2021/10/21 04:12:26;;;;;;;5.25;0.57;;;12.10;98.40;;;;;;5075531;28;20123;-78
2021/10/21 04:14:52;;;;;;;6.30;0.85;;;12.10;98.50;;;;;;5077018;28;20105;-78
2021/10/21 04:17:19;;;;;;;6.68;0.55;;;12.10;98.60;;;;;;5058837;28;20029;-78
2021/10/21 04:19:46;;;;;;;7.22;1.10;;;12.10;98.90;;;;;;5042673;28;20035;-79
2021/10/21 04:22:12;;;;;;;4.88;1.05;;;12.00;98.90;;;;;;5076498;28;20032;-79
2021/10/21 04:24:38;;;;;;;5.32;0.40;;;12.00;99.10;;;;;;5075471;28;20507;-80
2021/10/21 04:27:03;;;;;;;1.92;0.52;;;12.00;99.20;;;;;;5076343;28;20021;-80
2021/10/21 04:29:29;;;;;;;11.15;0.90;;;12.00;99.30;;;;;;5058447;28;20492;-77
2021/10/21 04:31:55;;;;;;;4.93;0.82;;;11.90;99.30;;;;;;5041857;28;20028;-78
2021/10/21 04:34:20;;;;;;;5.00;0.90;;;11.90;99.50;;;;;;5058442;28;20037;-78
2021/10/21 04:36:46;;;;;;;4.97;1.02;;;11.90;99.50;;;;;;5075191;28;20029;-79
2021/10/21 04:39:12;;;;;;;6.65;0.65;;;11.90;99.60;;;;;;5076508;28;20099;-75
2021/10/21 04:41:38;;;;;;;7.50;0.75;;;11.90;99.60;;;;;;5076045;28;20518;-78
2021/10/21 04:44:04;;;;;;;7.63;0.90;;;11.90;99.70;;;;;;5058389;28;20380;-78
2021/10/21 04:46:30;;;;;;;7.93;0.60;;;11.90;99.80;;;;;;5074960;28;20103;-79
2021/10/21 04:48:56;;;;;;;4.68;0.50;;;11.80;99.80;;;;;;5076039;28;20028;-77
2021/10/21 04:51:21;;;;;;;5.55;0.70;;;11.80;99.80;;;;;;5074140;28;20032;-74
2021/10/21 04:53:47;;;;;;;4.60;0.52;;;11.90;99.90;;;;;;5058335;28;20089;-75
2021/10/21 04:56:13;;;;;;;6.28;0.60;;;11.90;99.90;;;;;;5074725;28;20115;-76
2021/10/21 04:58:38;;;;;;;4.38;0.43;;;11.80;99.90;;;;;;5074572;28;20032;-74
2021/10/21 05:01:04;;;;;;;2.95;0.75;;;11.90;99.90;;;;;;5074388;28;20020;-76
2021/10/21 05:03:31;;;;;;;8.65;0.60;;;11.80;99.90;;;;;;5075155;28;20457;-75
2021/10/21 05:05:56;;;;;;;5.43;0.60;;;11.80;99.90;;;;;;5058251;28;20028;-74
2021/10/21 05:08:22;;;;;;;3.88;0.60;;;11.90;99.90;;;;;;5075678;28;20032;-76
2021/10/21 05:10:48;;;;;;;6.82;0.80;;;11.90;99.90;;;;;;5075627;28;20032;-73
2021/10/21 05:13:14;;;;;;;5.70;0.75;;;11.90;99.90;;;;;;5057783;28;20051;-73
2021/10/21 05:15:40;;;;;;;3.40;0.57;;;11.90;99.90;;;;;;5074549;28;20024;-74
2021/10/21 05:18:06;;;;;;;4.30;0.73;;;11.90;99.90;;;;;;5076013;28;20033;-74
2021/10/21 05:20:32;;;;;;;8.00;0.70;;;11.90;99.90;;;;;;5074393;28;20389;-74
2021/10/21 05:22:58;;;;;;;3.83;0.70;;;11.90;99.90;;;;;;5074471;28;20044;-73
2021/10/21 05:25:23;;;;;;;5.95;0.50;;;11.90;99.90;;;;;;5074282;28;20029;-75
2021/10/21 05:27:49;;;;;;;4.57;0.50;;;11.90;99.90;;;;;;5057492;28;20480;-77
2021/10/21 05:30:15;;;;;;;7.65;1.33;;;11.90;99.90;;;;;;5075229;28;20025;-76
2021/10/21 05:32:40;;;;;;;7.30;1.00;;;11.90;99.90;;;;;;5032160;28;20480;-77
2021/10/21 05:35:06;;;;;;;6.28;0.70;;;11.80;99.90;;;;;;5033230;28;20036;-77
2021/10/21 05:37:32;;;;;;;5.18;0.93;;;11.80;99.90;;;;;;5038672;28;20032;-78
2021/10/21 05:39:58;;;;;;;6.03;0.93;;;11.80;99.90;;;;;;5068004;28;20029;-77
2021/10/21 05:42:24;;;;;;;7.50;1.20;;;11.80;99.90;;;;;;5068651;28;20512;-79
2021/10/21 05:44:50;;;;;;;6.30;1.40;;;11.80;99.90;;;;;;5054153;28;20029;-80
2021/10/21 05:47:16;;;;;;;6.05;1.08;;;11.70;99.90;;;;;;5064650;28;20074;-79
2021/10/21 05:49:42;;;;;;;5.80;0.80;;;11.70;99.90;;;;;;5064164;28;20028;-79
2021/10/21 05:52:08;;;;;;;6.80;0.50;;;11.60;99.20;;;;;;5062547;28;20044;-77
2021/10/21 05:54:34;;;;;;;1.70;0.50;;;11.40;98.90;;;;;;5062701;28;20036;-80
2021/10/21 05:57:00;;;;;;;2.53;0.40;;;11.30;99.00;;;;;;5062394;28;20029;-80
2021/10/21 05:59:25;;;;;;;2.87;0.40;;;11.20;98.90;;;;;;5051699;28;20025;-78
2021/10/21 06:01:51;;;;;;;3.33;0.50;;;11.00;99.00;;;;;;5047434;28;20074;-79
2021/10/21 06:04:16;;;;;;;2.83;0.40;;;11.00;99.00;;;;;;5069311;28;20098;-78
2021/10/21 06:06:42;;;;;;;2.50;0.30;;;10.90;99.30;;;;;;5073237;28;20029;-79
2021/10/21 06:09:08;;;;;;;2.17;0.30;;;10.90;99.20;;;;;;5056792;28;20042;-78
2021/10/21 06:11:38;;;;;;;1.77;0.23;;;10.80;99.30;;;;;;5074576;28;20039;-78
2021/10/21 06:14:07;;;;;;;2.40;0.50;;;10.70;99.20;;;;;;5072962;28;20053;-79
2021/10/21 06:16:34;;;;;;;1.70;0.20;;;10.70;99.30;;;;;;5037746;28;20033;-80
2021/10/21 06:19:00;;;;;;;2.88;0.30;;;10.70;99.40;;;;;;5072332;28;20032;-78
2021/10/21 06:21:27;;;;;;;2.27;0.30;;;10.70;99.50;;;;;;5073846;28;20099;-78
2021/10/21 06:23:54;;;;;;;3.47;0.30;;;10.60;99.60;;;;;;5073385;28;20051;-79
2021/10/21 06:26:20;;;;;;;3.73;0.50;;;10.60;99.70;;;;;;5073889;28;20033;-77
2021/10/21 06:28:49;;;;;;;5.37;0.50;;;10.70;99.80;;;;;;5074060;28;20016;-78
2021/10/21 06:31:15;;;;;;;6.23;1.33;;;10.70;99.90;;;;;;5072695;28;20028;-78
2021/10/21 06:33:42;;;;;;;3.50;0.50;;;10.60;99.90;;;;;;5074057;28;20040;-76
2021/10/21 06:36:10;;;;;;;3.97;0.40;;;10.70;99.90;;;;;;5066085;28;20021;-77
2021/10/21 06:38:35;;;;;;;3.42;0.43;;;10.70;99.90;;;;;;5046021;28;20036;-77
2021/10/21 06:41:01;;;;;;;4.37;0.53;;;10.70;99.90;;;;;;5064720;28;20027;-77
2021/10/21 06:43:27;;;;;;;1.73;0.40;;;10.70;99.90;;;;;;5061830;28;20421;-76
2021/10/21 06:45:52;;;;;;;8.63;0.70;;;10.70;99.90;;;;;;5060247;28;20107;-76
2021/10/21 06:48:18;;;;;;;10.57;1.07;;;10.70;99.90;;;;;;5059144;28;20025;-75
2021/10/21 06:50:45;;;;;;;9.13;0.80;;;10.70;99.90;;;;;;5052346;28;20041;-76
2021/10/21 06:53:11;;;;;;;8.57;0.70;;;10.70;99.90;;;;;;5057286;28;20025;-76
2021/10/21 06:55:37;;;;;;;7.53;0.60;;;10.80;99.90;;;;;;5052247;28;20021;-74
2021/10/21 06:58:02;;;;;;;6.67;0.70;;;10.80;99.90;;;;;;5035587;28;20029;-76
2021/10/21 07:00:29;;;;;;;4.78;0.80;;;10.80;99.80;;;;;;5069941;28;20036;-76
2021/10/21 07:02:57;;;;;;;12.33;1.00;;;10.80;99.70;;;;;;5053321;28;20463;-75
2021/10/21 07:05:25;;;;;;;6.70;0.90;;;10.90;99.70;;;;;;5056058;28;20541;-75
2021/10/21 07:07:51;;;;;;;10.23;0.80;;;10.90;99.60;;;;;;5061831;28;20029;-77
2021/10/21 07:10:17;;;;;;;5.95;0.85;;;10.90;99.50;;;;;;5035420;28;20025;-77
2021/10/21 07:12:45;;;;;;;9.97;1.00;;;10.90;99.70;;;;;;5035172;28;20175;-76
2021/10/21 07:15:11;;;;;;;15.30;1.30;;;10.90;99.70;;;;;;5045162;28;20103;-76
2021/10/21 07:17:38;;;;;;;12.77;1.43;;;10.90;99.70;;;;;;5067680;28;20473;-76
2021/10/21 07:20:05;;;;;;;12.55;2.20;;;10.80;99.70;;;;;;5071232;28;20036;-76
2021/10/21 07:22:31;;;;;;;15.27;1.23;;;10.80;99.60;;;;;;5054696;28;20029;-76
2021/10/21 07:24:57;;;;;;;10.07;1.03;;;10.80;99.60;;;;;;5055130;28;20031;-76
2021/10/21 07:27:23;;;;;;;8.43;1.15;;;10.80;99.60;;;;;;5073058;28;20024;-77
2021/10/21 07:29:49;;;;;;;11.83;0.93;;;10.80;99.60;;;;;;5071793;28;20035;-74
2021/10/21 07:32:14;;;;;;;11.17;0.93;;;10.80;99.60;;;;;;5054604;28;20119;-75
2021/10/21 07:34:42;;;;;;;6.80;1.10;;;10.90;99.70;;;;;;5072846;28;20476;-75
2021/10/21 07:37:08;;;;;;;14.37;1.50;;;10.90;99.70;;;;;;5066725;28;20079;-75
2021/10/21 07:39:34;;;;;;;19.17;1.88;;;10.90;99.60;;;;;;5040159;28;20477;-73
2021/10/21 07:42:02;;;;;;;14.45;2.08;;;10.90;99.30;;;;;;5039478;28;20087;-76
2021/10/21 07:44:35;;;;;;;11.68;1.67;;;10.90;99.00;;;;;;5051590;28;20123;-78
2021/10/21 07:47:02;;;;;;;17.40;1.70;;;11.00;98.60;;;;;;5051511;28;20025;-78
2021/10/21 07:49:28;;;;;;;13.68;1.58;;;11.00;98.40;;;;;;5038047;28;20029;-77
2021/10/21 07:51:54;;;;;;;16.05;1.88;;;11.00;98.80;;;;;;5061226;28;20028;-75
2021/10/21 07:54:23;;;;;;;12.57;1.77;;;10.80;99.30;;;;;;5036327;28;20039;-75
2021/10/21 07:56:49;;;;;;;16.02;2.75;;;10.80;99.70;;;;;;5058846;28;20040;-76
2021/10/21 07:59:15;;;;;;;19.13;2.50;;;10.70;99.90;;;;;;5046118;28;20108;-77
2021/10/21 08:01:41;;;;;;;12.23;1.60;;;10.60;99.90;;;;;;5059892;28;20531;-75
2021/10/21 08:04:09;;;;;;;21.00;2.47;;;10.50;99.90;;;;;;5052761;28;20029;-76
2021/10/21 08:06:34;;;;;;;22.27;2.43;;;10.50;99.90;;;;;;5045596;28;20033;-77
2021/10/21 08:09:03;;;;;;;18.73;2.37;;;10.50;99.90;;;;;;5056976;28;20017;-76
2021/10/21 08:11:29;;;;;;;18.80;2.97;;;10.40;99.90;;;;;;5064596;28;20477;-75
2021/10/21 08:13:54;;;;;;;18.93;2.10;;;10.40;99.70;;;;;;5069278;28;20052;-77
2021/10/21 08:16:20;;;;;;;16.30;1.90;;;10.40;99.50;;;;;;5040202;28;20025;-76
2021/10/21 08:18:45;;;;;;;12.80;1.67;;;10.50;99.20;;;;;;5062497;28;20511;-75
2021/10/21 08:21:11;;;;;;;15.40;2.27;;;10.50;98.90;;;;;;5061057;28;20493;-75
2021/10/21 08:23:37;;;;;;;11.77;1.73;;;10.50;98.20;;;;;;5047401;28;20024;-77
2021/10/21 08:26:03;;;;;;;16.90;1.53;;;10.60;96.80;;;;;;5022204;28;20591;-77
2021/10/21 08:28:28;;;;;;;12.45;1.65;;;10.60;96.90;;;;;;5062762;28;20033;-77
2021/10/21 08:30:54;;;;;;;14.18;1.63;;;10.60;95.70;;;;;;5033985;28;20021;-77
2021/10/21 08:33:20;;;;;;;14.47;1.93;;;10.70;96.00;;;;;;5052230;28;20115;-77
2021/10/21 08:35:45;;;;;;;12.48;2.20;;;10.70;94.80;;;;;;5054472;28;20067;-79
2021/10/21 08:38:11;;;;;;;11.57;1.30;;;10.70;94.50;;;;;;5030223;28;20033;-78
2021/10/21 08:40:37;;;;;;;13.43;1.58;;;10.80;94.30;;;;;;5046541;28;20032;-78
2021/10/21 08:43:05;;;;;;;13.02;1.98;;;10.80;93.70;;;;;;5062875;28;20021;-79
2021/10/21 08:45:30;;;;;;;11.15;1.38;;;10.90;93.90;;;;;;5066514;28;20044;-77
2021/10/21 08:48:01;;;;;;;12.20;1.92;;;11.00;94.20;;;;;;5047086;28;20457;-79
2021/10/21 08:50:28;;;;;;;11.20;1.63;;;11.10;93.90;;;;;;5065691;28;20044;-77
2021/10/21 08:52:53;;;;;;;9.65;1.23;;;11.20;94.00;;;;;;5051293;28;20028;-78
2021/10/21 08:55:19;;;;;;;11.18;1.73;;;11.30;94.10;;;;;;5057401;28;20052;-79
2021/10/21 08:57:45;;;;;;;8.88;1.38;;;11.40;94.10;;;;;;5052775;28;20107;-77
2021/10/21 09:00:13;;;;;;;14.60;1.55;;;11.40;93.60;;;;;;5051629;28;20033;-77
2021/10/21 09:02:51;;;;;;;11.10;1.05;;;11.40;93.60;;;;;;5027996;28;20029;-78
2021/10/21 09:08:05;;;;;;;8.02;0.90;;;11.50;92.60;;;;;;5075510;28;20388;-78
2021/10/21 09:10:31;;;;;;;7.97;1.08;;;11.50;92.70;;;;;;5068419;28;20036;-77
2021/10/21 09:12:59;;;;;;;8.93;0.80;;;11.40;93.10;;;;;;5066430;28;20398;-78
2021/10/21 09:15:27;;;;;;;5.20;0.60;;;11.30;94.00;;;;;;5067318;28;20053;-77
2021/10/21 09:17:54;;;;;;;8.95;0.60;;;11.20;94.70;;;;;;5040715;28;20032;-80
2021/10/21 09:20:24;;;;;;;7.00;1.38;;;11.10;95.50;;;;;;5048579;28;20021;-78
2021/10/21 09:23:02;;;;;;;6.00;1.30;;;11.10;95.70;;;;;;5062144;28;20377;-81
2021/10/21 09:25:29;;;;;;;6.93;0.90;;;11.00;96.10;;;;;;5062524;28;20108;-76
2021/10/21 09:28:01;;;;;;;9.05;1.30;;;11.00;96.50;;;;;;5065343;28;20074;-78
2021/10/21 09:30:30;;;;;;;9.85;1.50;;;11.00;96.90;;;;;;5061542;28;20071;-77
2021/10/21 09:33:12;;;;;;;12.93;1.35;;;10.90;97.30;;;;;;5062844;28;20074;-78
2021/10/21 09:35:38;;;;;;;11.40;1.47;;;10.90;97.50;;;;;;5064495;28;20051;-75
2021/10/21 09:38:04;;;;;;;10.77;1.70;;;10.90;97.70;;;;;;5048836;28;20056;-77
2021/10/21 09:40:36;;;;;;;7.27;0.77;;;10.80;97.90;;;;;;5061753;28;20437;-77
2021/10/21 09:43:05;;;;;;;15.07;1.77;;;10.80;98.10;;;;;;5064279;28;20100;-76
2021/10/21 09:45:40;;;;;;;13.10;1.40;;;10.80;98.20;;;;;;5064903;28;20492;-78
2021/10/21 09:48:07;;;;;;;9.73;1.20;;;10.70;98.30;;;;;;5064049;28;20437;-80
2021/10/21 09:50:39;;;;;;;12.10;1.00;;;10.80;98.70;;;;;;5064270;28;20056;-77
2021/10/21 09:53:22;;;;;;;11.70;1.33;;;10.60;99.20;;;;;;5063856;28;20021;-78
2021/10/21 09:55:51;;;;;;;12.57;0.97;;;10.60;99.60;;;;;;5067988;28;20429;-79
2021/10/21 09:58:20;;;;;;;14.97;1.87;;;10.50;99.90;;;;;;5065043;28;20016;-76
2021/10/21 10:00:46;;;;;;;11.07;1.90;;;10.40;99.90;;;;;;5042533;28;20044;-78
2021/10/21 10:03:30;;;;;;;15.57;1.97;;;10.40;99.90;;;;;;5053267;28;20025;-77
2021/10/21 10:05:57;;;;;;;11.43;1.40;;;10.30;99.90;;;;;;5067446;28;20024;-76
2021/10/21 10:08:24;;;;;;;7.20;1.20;;;10.20;99.90;;;;;;5061935;28;20059;-76
2021/10/21 10:10:52;;;;;;;13.40;2.50;;;10.20;99.90;;;;;;5060594;28;20369;-76
2021/10/21 10:13:19;;;;;;;9.27;1.40;;;10.20;99.90;;;;;;5061335;28;20443;-76
2021/10/21 10:15:47;;;;;;;10.20;1.60;;;10.10;99.90;;;;;;5056319;28;20035;-77
2021/10/21 10:18:18;;;;;;;14.13;1.67;;;10.20;99.90;;;;;;5073070;28;20031;-76
2021/10/21 10:20:55;;;;;;;12.60;1.73;;;10.10;99.90;;;;;;5067709;28;20041;-77
2021/10/21 10:23:22;;;;;;;8.10;1.50;;;10.20;99.90;;;;;;5061668;28;20013;-78
2021/10/21 10:25:49;;;;;;;12.90;2.10;;;10.30;99.90;;;;;;5062066;28;20051;-77
2021/10/21 10:28:16;;;;;;;9.10;2.07;;;10.40;99.90;;;;;;5049175;28;20028;-78
2021/10/21 10:30:50;;;;;;;11.43;2.00;;;10.50;99.90;;;;;;5062865;28;20118;-79
2021/10/21 10:33:42;;;;;;;12.20;2.10;;;10.70;99.90;;;;;;5066597;28;20067;-79
2021/10/21 10:36:23;;;;;;;10.48;1.60;;;11.00;99.90;;;;;;5052629;28;20060;-80
2021/10/21 10:38:50;;;;;;;9.27;1.30;;;11.20;99.90;;;;;;5061018;28;20068;-78
2021/10/21 10:41:44;;;;;;;9.40;1.20;;;11.10;99.90;;;;;;5061025;28;20043;-80
2021/10/21 10:44:28;;;;;;;12.50;1.50;;;11.10;99.90;;;;;;5071665;28;20033;-81
2021/10/21 10:46:54;;;;;;;12.88;1.33;;;11.20;99.90;;;;;;5056379;28;20062;-79
2021/10/21 10:49:41;;;;;;;10.57;1.77;;;11.30;99.90;;;;;;5054978;28;20099;-79
2021/10/21 10:52:12;;;;;;;16.55;1.42;;;11.50;99.90;;;;;;5058646;28;20031;-81
2021/10/21 10:54:39;;;;;;;16.83;1.33;;;11.80;99.90;;;;;;5054081;28;20135;-81
2021/10/21 10:57:05;;;;;;;11.43;1.77;;;11.90;99.90;;;;;;5052484;28;20434;-79
2021/10/21 10:59:33;;;;;;;12.85;1.20;;;12.00;99.90;;;;;;5035746;28;20082;-80
2021/10/21 11:02:00;;;;;;;11.77;1.38;;;12.00;99.90;;;;;;5034584;28;20025;-78
2021/10/21 11:04:51;;;;;;;8.13;0.88;;;11.80;99.90;;;;;;5052289;28;20029;-80
2021/10/21 11:07:22;;;;;;;11.88;1.75;;;12.00;99.90;;;;;;5053439;28;20025;-78
2021/10/21 11:09:49;;;;;;;10.77;1.75;;;12.00;99.90;;;;;;5052124;28;20101;-78
2021/10/21 11:12:32;;;;;;;10.20;1.30;;;12.00;99.90;;;;;;5052995;28;20043;-81
2021/10/21 11:14:58;;;;;;;10.07;1.10;;;11.90;99.90;;;;;;5035375;28;20029;-79
2021/10/21 11:17:50;;;;;;;13.80;1.52;;;11.70;99.90;;;;;;5053479;28;20171;-79
2021/10/21 11:20:42;;;;;;;14.02;1.35;;;11.70;99.90;;;;;;5052138;28;20514;-81
2021/10/21 11:23:34;;;;;;;10.40;1.08;;;11.60;99.20;;;;;;5071002;28;20037;-79
2021/10/21 11:26:02;;;;;;;15.27;1.30;;;11.40;98.80;;;;;;5069181;28;20147;-82
2021/10/21 11:28:33;;;;;;;8.55;1.17;;;11.60;98.60;;;;;;5055263;28;20025;-81
2021/10/21 11:31:00;;;;;;;11.75;1.67;;;11.40;98.60;;;;;;5071513;28;20082;-79
2021/10/21 11:33:26;;;;;;;9.75;1.00;;;11.40;98.50;;;;;;5070448;28;20400;-82
2021/10/21 11:35:53;;;;;;;6.57;1.10;;;11.40;97.80;;;;;;5071977;28;20037;-80
2021/10/21 11:38:20;;;;;;;8.82;1.00;;;11.30;98.00;;;;;;5073490;28;20041;-82
2021/10/21 11:40:50;;;;;;;8.27;1.13;;;11.40;98.30;;;;;;5071802;28;20116;-79
2021/10/21 11:43:24;;;;;;;10.95;1.20;;;11.50;98.80;;;;;;5072296;28;20023;-78
2021/10/21 11:45:56;;;;;;;7.95;0.95;;;12.20;99.90;;;;;;5071963;28;20025;-80
2021/10/21 11:48:29;;;;;;;8.48;1.05;;;12.90;98.90;;;;;;5073410;28;20048;-77
2021/10/21 11:50:55;;;;;;;6.80;0.98;;;13.20;94.80;;;;;;5072118;28;20104;-83
2021/10/21 11:53:22;;;;;;;5.18;0.40;;;13.20;93.30;;;;;;5073235;28;20032;-82
2021/10/21 11:55:49;;;;;;;1.80;0.20;;;13.10;90.80;;;;;;5072324;28;20040;-82
2021/10/21 11:58:16;;;;;;;2.25;0.20;;;12.50;88.80;;;;;;5072775;28;20032;-81
2021/10/21 12:00:49;;;;;;;1.15;0.20;;;12.10;90.80;;;;;;5072662;28;20465;-80
2021/10/21 12:03:16;;;;;;;2.20;0.20;;;11.70;92.00;;;;;;5076552;28;20032;-78
2021/10/21 12:05:43;;;;;;;1.75;0.20;;;11.40;92.80;;;;;;5066409;28;20029;-80
2021/10/21 12:08:11;;;;;;;1.40;0.43;;;11.00;92.90;;;;;;5065935;28;20025;-80
2021/10/21 12:10:39;;;;;;;5.50;0.30;;;10.80;93.30;;;;;;5070995;28;20194;-82
2021/10/21 12:13:05;;;;;;;3.87;0.73;;;10.60;94.00;;;;;;5075314;28;20049;-81
2021/10/21 12:15:39;;;;;;;3.47;0.47;;;10.40;94.50;;;;;;5071426;28;20097;-79
2021/10/21 12:18:07;;;;;;;4.07;0.30;;;10.30;95.00;;;;;;5056547;28;20031;-79
2021/10/21 12:20:46;;;;;;;3.57;0.40;;;10.20;95.40;;;;;;5055148;28;20392;-80
2021/10/21 12:23:13;;;;;;;4.20;0.30;;;10.20;95.50;;;;;;5055282;28;20021;-79
2021/10/21 12:25:39;;;;;;;2.60;0.37;;;10.10;95.80;;;;;;5038713;28;20017;-79
2021/10/21 12:28:04;;;;;;;2.80;0.30;;;10.10;95.90;;;;;;5055222;28;20490;-78
2021/10/21 12:30:35;;;;;;;4.60;0.40;;;10.10;96.20;;;;;;5060466;28;20076;-81
2021/10/21 12:33:10;;;;;;;1.87;0.40;;;10.00;96.30;;;;;;5044472;28;20021;-80
2021/10/21 12:35:36;;;;;;;4.90;0.47;;;10.00;96.50;;;;;;5067716;28;20039;-80
2021/10/21 12:38:15;;;;;;;5.53;0.40;;;10.00;96.70;;;;;;5074842;28;20017;-80
2021/10/21 12:40:41;;;;;;;6.50;0.40;;;10.10;96.70;;;;;;5074267;28;20020;-79
2021/10/21 12:43:17;;;;;;;3.77;0.60;;;10.00;96.80;;;;;;5074839;28;20103;-81
2021/10/21 12:45:43;;;;;;;3.07;0.30;;;10.00;96.90;;;;;;5065354;28;20524;-80
2021/10/21 12:48:26;;;;;;;4.57;0.40;;;10.10;97.10;;;;;;5029111;28;20111;-79